Chefornak, Alaska
Current Conditions -  °F | °C
As of 4:56 PM on Friday 24 Oct 2014 (Local Time) from PAKI Reporting Station
Clear Clear  
Wind Chill: 29°   Ceiling: Unl
Heat Index: 37°   Visibility: 10mi
Dew Point: 33°   Wind: 12mph
Humidity: 86%   Direction: 170°S
Pressure: 29.96"   Gusts: NA
Location:  60.16°N, 164.27°W
Report Text: PAKI 250056Z AUTO 17010KT 10SM CLR 03/01 A2996 RMK AO2 TSNO T00270005 SLP147 $
Loading
Personal Weather Stations






























Interactive Weather Map
Tropical Storm Tracking
New forecast layout! Learn more

10-Day Weather Forecast

Advertisements
Track Severe Weather on mobile